| Date | Time | Temp. (oF) | Dew Point (oF) | Rel. Hum. (%) | Press. (in.) | Wind Dir. | Wind Speed (mph) | Hourly Rainfall (in.) |
|
|---|---|---|---|---|---|---|---|---|---|
| 1 | 08/30 | 00:00 | 77 | 72 | 86 | 30.04 | SW | 2 | 0.00 |
| 2 | 08/29 | 23:00 | 78 | 74 | 88 | 30.03 | SSW | 2 | 0.00 |
| 3 | 08/29 | 22:00 | 80 | 76 | 88 | 30.02 | SSW | 1 | 0.00 |
| 4 | 08/29 | 21:00 | 80 | 76 | 90 | 30.01 | SSW | 3 | 0.00 |
| 5 | 08/29 | 20:00 | 82 | 79 | 92 | 30.00 | SW | 4 | 0.00 |
| 6 | 08/29 | 19:00 | 83 | 79 | 90 | 30.00 | SSE | 4 | 0.00 |
| 7 | 08/29 | 18:00 | 83 | 79 | 88 | 29.99 | S | 3 | 0.00 |
| 8 | 08/29 | 17:00 | 82 | 76 | 83 | 30.00 | NE | 5 | 0.00 |
| 9 | 08/29 | 16:00 | 84 | 78 | 84 | 29.99 | SSW | 6 | 0.00 |
| 10 | 08/29 | 15:00 | 87 | 78 | 77 | 30.01 | S | 6 | 0.00 |
| 11 | 08/29 | 14:00 | 85 | 78 | 81 | 30.04 | SE | 5 | 0.00 |
| 12 | 08/29 | 13:00 | 82 | 77 | 87 | 30.07 | S | 5 | 0.00 |
| 13 | 08/29 | 12:00 | 78 | 76 | 94 | 30.08 | SSE | 5 | 0.00 |
| 14 | 08/29 | 11:00 | 76 | 75 | 97 | 30.10 | SSW | 7 | 0.00 |
| 15 | 08/29 | 10:00 | 75 | 74 | 97 | 30.11 | SSE | 5 | 0.00 |
| 16 | 08/29 | 09:00 | 73 | 72 | 99 | 30.10 | N | 3 | 0.00 |
| 17 | 08/29 | 08:00 | 72 | 71 | 99 | 30.12 | SSW | 1 | 0.00 |
| 18 | 08/29 | 07:00 | 71 | 70 | 99 | 30.12 | SSE | 0 | 0.00 |
| 19 | 08/29 | 06:00 | 70 | 69 | 99 | 30.10 | E | 0 | 0.00 |
| 20 | 08/29 | 05:00 | 70 | 69 | 100 | 30.11 | SSE | 0 | 0.00 |
| 21 | 08/29 | 04:00 | 69 | 68 | 99 | 30.10 | NE | 4 | 0.00 |
| 22 | 08/29 | 03:00 | 69 | 68 | 97 | 30.11 | NNE | 3 | 0.00 |
| 23 | 08/29 | 02:00 | 70 | 68 | 96 | 30.13 | ENE | 0 | 0.00 |
| 24 | 08/29 | 01:00 | 70 | 68 | 95 | 30.14 | SSE | 0 | 0.00 |